Time;durP1;ratioP1;P1;durP2;ratioP2;P2;SDS_P1;SDS_P2;PMS_P1;PMS_P2;Temp;Humidity;BMP_temperature;BMP_pressure;BME280_temperature;BME280_humidity;BME280_pressure;Samples;Min_cycle;Max_cycle;Signal;HPM_P1;HPM_P2
2021/08/29 00:01:28;;;;;;;4.88;2.50;;;16.30;99.90;;;;;;5033370;28;20416;-37
2021/08/29 00:04:06;;;;;;;5.75;2.65;;;16.30;99.90;;;;;;5034379;28;20412;-41
2021/08/29 00:06:45;;;;;;;3.30;2.33;;;16.30;99.90;;;;;;5037034;28;20413;-41
2021/08/29 00:09:16;;;;;;;3.47;2.15;;;16.30;99.90;;;;;;5036122;28;20044;-40
2021/08/29 00:12:06;;;;;;;2.55;2.00;;;16.40;99.90;;;;;;5033733;28;20488;-40
2021/08/29 00:14:56;;;;;;;7.72;2.55;;;16.40;99.90;;;;;;5032297;28;20034;-37
2021/08/29 00:24:07;;;;;;;4.25;1.92;;;16.50;99.90;;;;;;5013397;28;20061;-35
2021/08/29 00:26:40;;;;;;;6.22;2.50;;;16.50;99.90;;;;;;5032554;28;20057;-38
2021/08/29 00:29:13;;;;;;;4.80;2.85;;;16.40;99.90;;;;;;5032769;28;20034;-39
2021/08/29 00:31:53;;;;;;;6.50;2.50;;;16.50;99.90;;;;;;5032339;28;20381;-41
2021/08/29 00:34:37;;;;;;;7.13;2.40;;;16.40;99.90;;;;;;5033895;28;20195;-42
2021/08/29 00:37:12;;;;;;;3.83;2.20;;;16.40;99.90;;;;;;5032831;28;20377;-39
2021/08/29 00:39:54;;;;;;;5.63;2.47;;;16.50;99.90;;;;;;5033678;28;20393;-38
2021/08/29 00:42:28;;;;;;;7.13;3.05;;;16.50;99.90;;;;;;5033664;28;20466;-41
2021/08/29 00:45:02;;;;;;;4.95;2.50;;;16.50;99.90;;;;;;5034404;28;20511;-42
2021/08/29 00:47:41;;;;;;;6.93;2.72;;;16.40;99.90;;;;;;5035527;28;20447;-41
2021/08/29 00:50:14;;;;;;;4.72;2.25;;;16.40;99.90;;;;;;5034199;28;20289;-41
2021/08/29 00:52:45;;;;;;;7.15;2.58;;;16.40;99.90;;;;;;5033383;28;20068;-41
2021/08/29 00:55:26;;;;;;;6.97;3.00;;;16.40;99.90;;;;;;5035042;28;20388;-40
2021/08/29 00:58:15;;;;;;;5.47;2.72;;;16.40;99.90;;;;;;5035641;28;20561;-41
2021/08/29 01:00:53;;;;;;;4.05;2.60;;;16.40;99.90;;;;;;5034515;28;20392;-38
2021/08/29 01:03:30;;;;;;;5.75;2.50;;;16.40;99.90;;;;;;5033614;28;20361;-41
2021/08/29 01:06:29;;;;;;;6.65;2.95;;;16.40;99.90;;;;;;5034048;28;20487;-42
2021/08/29 01:09:45;;;;;;;5.15;2.22;;;16.50;99.90;;;;;;5034162;28;20431;-39
2021/08/29 01:12:51;;;;;;;5.93;2.80;;;16.40;99.90;;;;;;5043686;28;20124;-38
2021/08/29 01:15:51;;;;;;;5.57;2.90;;;16.50;99.90;;;;;;5016556;28;20508;-38
2021/08/29 01:18:31;;;;;;;6.40;2.85;;;16.40;99.90;;;;;;5031414;28;20492;-40
2021/08/29 01:21:29;;;;;;;7.03;2.90;;;16.50;99.90;;;;;;5034158;28;20045;-41
2021/08/29 01:24:08;;;;;;;6.95;2.85;;;16.40;99.90;;;;;;5035066;28;20260;-39
2021/08/29 01:26:56;;;;;;;7.03;3.05;;;16.40;99.90;;;;;;5034557;28;20060;-39
2021/08/29 01:29:27;;;;;;;4.97;2.80;;;16.40;99.90;;;;;;5033315;28;20104;-42
2021/08/29 01:31:53;;;;;;;4.22;2.78;;;16.40;99.90;;;;;;5030212;28;20112;-38
2021/08/29 01:34:21;;;;;;;10.00;3.42;;;16.40;99.90;;;;;;5031047;28;20369;-38
2021/08/29 01:36:52;;;;;;;6.32;2.78;;;16.40;99.90;;;;;;5031419;28;20057;-40
2021/08/29 01:39:20;;;;;;;8.63;2.88;;;16.40;99.90;;;;;;5032369;28;20040;-40
2021/08/29 01:41:53;;;;;;;15.32;4.50;;;16.40;99.90;;;;;;5030438;28;20716;-39
2021/08/29 01:44:23;;;;;;;9.75;3.95;;;16.40;99.90;;;;;;5031252;28;20032;-41
2021/08/29 01:46:55;;;;;;;6.65;2.78;;;16.50;99.90;;;;;;5030627;28;20091;-39
2021/08/29 01:49:24;;;;;;;8.68;3.53;;;16.50;99.90;;;;;;5030225;28;20039;-39
2021/08/29 01:51:50;;;;;;;4.97;3.30;;;16.50;99.90;;;;;;5030514;28;20196;-36
2021/08/29 01:54:17;;;;;;;8.15;3.33;;;16.60;99.90;;;;;;5029652;28;20037;-41
2021/08/29 01:57:19;;;;;;;8.10;3.10;;;16.60;99.90;;;;;;5030146;28;20360;-40
2021/08/29 01:59:47;;;;;;;6.90;3.45;;;16.60;99.90;;;;;;5027766;28;20425;-37
2021/08/29 02:02:24;;;;;;;6.70;2.92;;;16.60;99.90;;;;;;5029802;28;20045;-40
2021/08/29 02:04:54;;;;;;;6.70;3.53;;;16.60;99.90;;;;;;5030538;28;20322;-41
2021/08/29 02:07:52;;;;;;;7.95;3.83;;;16.60;99.90;;;;;;5031443;28;20429;-41
2021/08/29 02:10:24;;;;;;;8.63;3.53;;;16.60;99.90;;;;;;5034201;28;20036;-41
2021/08/29 02:12:59;;;;;;;6.20;3.70;;;16.60;99.90;;;;;;5030645;28;20083;-37
2021/08/29 02:15:56;;;;;;;5.38;2.80;;;16.60;99.90;;;;;;5030221;28;20049;-39
2021/08/29 02:18:24;;;;;;;6.22;3.03;;;16.70;99.90;;;;;;5030704;28;20396;-42
2021/08/29 02:20:57;;;;;;;7.68;3.15;;;16.60;99.90;;;;;;5029904;28;20049;-38
2021/08/29 02:23:26;;;;;;;7.82;3.65;;;16.60;99.90;;;;;;5030286;28;20034;-39
2021/08/29 02:25:54;;;;;;;9.70;3.55;;;16.60;99.90;;;;;;5026561;28;20770;-41
2021/08/29 02:28:21;;;;;;;9.00;3.78;;;16.60;99.90;;;;;;5031934;28;20029;-40
2021/08/29 02:30:48;;;;;;;9.82;4.07;;;16.60;99.90;;;;;;5029287;28;20022;-41
2021/08/29 02:33:16;;;;;;;11.45;5.18;;;16.60;99.90;;;;;;5031414;28;20025;-36
2021/08/29 02:35:43;;;;;;;8.70;5.35;;;16.60;99.90;;;;;;5030569;28;20413;-41
2021/08/29 02:38:13;;;;;;;13.15;7.22;;;16.60;99.90;;;;;;5029558;28;20120;-39
2021/08/29 02:40:42;;;;;;;13.18;7.88;;;16.60;99.90;;;;;;5030287;28;20025;-39
2021/08/29 02:43:09;;;;;;;16.85;9.18;;;16.50;99.90;;;;;;5030153;28;20135;-42
2021/08/29 02:45:40;;;;;;;14.70;8.85;;;16.50;99.90;;;;;;5030735;28;20141;-42
2021/08/29 02:48:16;;;;;;;13.40;7.80;;;16.50;99.90;;;;;;5031208;28;20431;-41
2021/08/29 02:50:45;;;;;;;17.80;9.55;;;16.50;99.90;;;;;;5030108;28;20128;-40
2021/08/29 02:53:15;;;;;;;17.70;9.60;;;16.50;99.90;;;;;;5029582;28;20036;-43
2021/08/29 02:55:47;;;;;;;14.18;9.25;;;16.50;99.90;;;;;;5029595;28;20031;-40
2021/08/29 02:58:13;;;;;;;18.33;10.13;;;16.50;99.90;;;;;;5031303;28;20443;-42
2021/08/29 03:00:43;;;;;;;15.57;10.35;;;16.50;99.90;;;;;;5029761;28;20033;-36
2021/08/29 03:03:09;;;;;;;19.63;9.68;;;16.60;99.90;;;;;;5030346;28;20103;-39
2021/08/29 03:05:37;;;;;;;14.05;8.40;;;16.60;99.90;;;;;;5031755;28;20018;-39
2021/08/29 03:08:04;;;;;;;15.00;8.55;;;16.60;99.90;;;;;;5034382;28;20057;-40
2021/08/29 03:10:31;;;;;;;16.17;9.13;;;16.60;99.90;;;;;;5034941;28;20025;-41
2021/08/29 03:13:00;;;;;;;11.70;8.13;;;16.60;99.90;;;;;;5033316;28;20021;-40
2021/08/29 03:15:28;;;;;;;15.02;8.23;;;16.60;99.90;;;;;;5034149;28;20373;-42
2021/08/29 03:17:58;;;;;;;10.95;7.07;;;16.70;99.90;;;;;;5034365;28;20028;-41
2021/08/29 03:20:28;;;;;;;11.55;7.25;;;16.60;99.90;;;;;;5034770;28;20096;-40
2021/08/29 03:23:27;;;;;;;11.55;6.35;;;16.60;99.90;;;;;;5036192;28;20037;-41
2021/08/29 03:25:58;;;;;;;10.48;5.40;;;16.60;99.90;;;;;;5034540;28;20032;-39
2021/08/29 03:28:39;;;;;;;8.13;5.00;;;16.70;99.90;;;;;;5040718;28;20026;-38
2021/08/29 03:31:11;;;;;;;6.70;4.20;;;16.70;99.90;;;;;;5036153;28;20355;-38
2021/08/29 03:33:54;;;;;;;10.65;4.75;;;16.70;99.90;;;;;;5023337;28;20084;-41
2021/08/29 03:36:28;;;;;;;7.20;4.25;;;16.70;99.90;;;;;;5035049;28;20068;-41
2021/08/29 03:39:12;;;;;;;6.80;4.05;;;16.70;99.90;;;;;;5036423;28;20049;-41
2021/08/29 03:41:44;;;;;;;9.05;4.05;;;16.70;99.90;;;;;;5035867;28;20060;-40
2021/08/29 03:44:12;;;;;;;8.85;3.90;;;16.70;99.90;;;;;;5036087;28;20029;-40
2021/08/29 03:46:41;;;;;;;8.32;4.00;;;16.70;99.90;;;;;;5036249;28;20025;-37
2021/08/29 03:49:11;;;;;;;9.88;3.70;;;16.70;99.90;;;;;;5037850;28;20040;-41
2021/08/29 03:51:43;;;;;;;5.88;3.17;;;16.60;99.90;;;;;;5036884;28;20453;-39
2021/08/29 03:54:28;;;;;;;8.27;3.92;;;16.60;99.90;;;;;;5036171;28;20065;-37
2021/08/29 03:57:37;;;;;;;8.02;3.78;;;16.60;99.90;;;;;;5035482;28;20044;-40
2021/08/29 04:00:35;;;;;;;6.22;3.03;;;16.60;99.90;;;;;;5030977;28;20038;-37
2021/08/29 04:03:55;;;;;;;7.38;3.33;;;16.60;99.90;;;;;;5033645;28;20096;-40
2021/08/29 04:06:36;;;;;;;6.40;3.20;;;16.60;99.90;;;;;;5016117;28;20030;-37
2021/08/29 04:09:09;;;;;;;7.25;3.17;;;16.60;99.90;;;;;;5033403;28;20396;-40
2021/08/29 04:11:51;;;;;;;7.28;3.20;;;16.60;99.90;;;;;;5035067;28;20104;-38
2021/08/29 04:14:26;;;;;;;5.05;3.00;;;16.60;99.90;;;;;;5034536;28;20388;-39
2021/08/29 04:17:26;;;;;;;8.32;3.50;;;16.60;99.90;;;;;;5033614;28;20060;-39
2021/08/29 04:20:06;;;;;;;6.05;3.22;;;16.60;99.90;;;;;;5032406;28;20064;-38
2021/08/29 04:23:07;;;;;;;8.38;3.28;;;16.60;99.90;;;;;;5035940;28;20125;-38
2021/08/29 04:26:16;;;;;;;6.13;3.45;;;16.60;99.90;;;;;;5025892;28;20065;-41
2021/08/29 04:32:19;;;;;;;7.60;3.22;;;16.60;99.90;;;;;;5030811;28;20071;-40
2021/08/29 04:35:27;;;;;;;7.78;2.85;;;16.60;99.90;;;;;;5034992;28;20386;-38
2021/08/29 04:38:23;;;;;;;7.00;3.00;;;16.60;99.90;;;;;;5016153;28;20413;-42
2021/08/29 04:41:05;;;;;;;9.63;2.80;;;16.60;99.90;;;;;;5034522;28;20029;-36
2021/08/29 04:43:35;;;;;;;;;;;16.60;99.90;;;;;;5035784;28;20392;-38
2021/08/29 04:46:14;;;;;;;7.72;3.05;;;16.60;99.90;;;;;;5020308;28;19909;-41
2021/08/29 04:49:02;;;;;;;6.40;3.30;;;16.60;99.90;;;;;;5036105;28;20419;-41
2021/08/29 04:51:38;;;;;;;8.18;2.72;;;16.60;99.90;;;;;;5023041;28;20200;-35
2021/08/29 04:54:08;;;;;;;11.23;3.00;;;16.70;99.90;;;;;;5033151;28;20487;-41
2021/08/29 04:57:14;;;;;;;8.40;3.08;;;16.70;99.90;;;;;;5034053;28;20029;-39
2021/08/29 04:59:54;;;;;;;12.50;3.00;;;16.70;99.90;;;;;;5032569;28;20072;-41
2021/08/29 05:02:36;;;;;;;6.55;2.58;;;16.70;99.90;;;;;;5034214;28;20452;-40
2021/08/29 05:05:07;;;;;;;8.75;3.08;;;16.70;99.90;;;;;;5032642;28;20455;-36
2021/08/29 05:07:41;;;;;;;9.48;2.83;;;16.70;99.90;;;;;;5033204;28;20429;-40
2021/08/29 05:10:21;;;;;;;7.27;2.80;;;16.70;99.90;;;;;;5032217;28;20393;-35
2021/08/29 05:13:13;;;;;;;6.53;3.30;;;16.70;99.90;;;;;;5032375;28;20276;-38
2021/08/29 05:15:59;;;;;;;9.15;2.65;;;16.80;99.90;;;;;;5033886;28;20052;-37
2021/08/29 05:18:32;;;;;;;7.05;2.63;;;16.80;99.90;;;;;;5033485;28;20038;-36
2021/08/29 05:28:49;;;;;;;9.23;2.88;;;16.90;99.90;;;;;;5026151;28;20060;-38
2021/08/29 05:31:36;;;;;;;7.75;2.70;;;16.90;99.90;;;;;;5029813;28;20404;-41
2021/08/29 05:37:27;;;;;;;12.23;3.30;;;16.90;99.90;;;;;;5032345;28;20036;-37
2021/08/29 05:40:23;;;;;;;7.55;2.95;;;17.00;99.90;;;;;;5012906;28;20061;-41
2021/08/29 05:46:57;;;;;;;9.18;3.53;;;17.00;99.90;;;;;;5029202;28;20416;-38
2021/08/29 05:49:58;;;;;;;10.38;3.13;;;17.00;99.90;;;;;;5031061;28;20476;-39
2021/08/29 06:02:51;;;;;;;8.30;2.85;;;17.10;99.90;;;;;;5030091;28;20125;-37
2021/08/29 06:05:51;;;;;;;9.90;3.28;;;17.10;99.90;;;;;;5013355;28;20022;-41
2021/08/29 06:08:32;;;;;;;8.57;3.08;;;17.10;99.90;;;;;;5025438;28;20095;-40
2021/08/29 06:11:45;;;;;;;11.52;3.67;;;17.10;99.90;;;;;;5031206;28;20361;-38
2021/08/29 06:18:18;;;;;;;8.52;2.80;;;17.10;99.90;;;;;;5030689;28;20036;-36
2021/08/29 06:21:43;;;;;;;9.82;2.67;;;17.10;99.90;;;;;;5012305;28;20121;-39
2021/08/29 06:46:49;;;;;;;10.38;3.03;;;17.20;99.90;;;;;;4996738;28;20056;-40
2021/08/29 06:52:59;;;;;;;6.90;2.80;;;17.30;99.90;;;;;;4981845;28;20030;-36
2021/08/29 06:55:25;;;;;;;6.95;2.63;;;17.40;99.90;;;;;;4994536;28;20034;-36
2021/08/29 06:57:56;;;;;;;5.82;2.67;;;17.50;99.90;;;;;;4995647;28;20030;-35
2021/08/29 07:00:33;;;;;;;12.77;3.75;;;17.50;99.90;;;;;;4996471;28;20113;-41
2021/08/29 07:03:03;;;;;;;8.38;2.80;;;17.50;99.90;;;;;;4997538;28;20038;-40
2021/08/29 07:05:53;;;;;;;8.45;2.90;;;17.50;99.90;;;;;;4994537;28;20037;-42
2021/08/29 07:08:19;;;;;;;7.95;2.55;;;17.60;99.90;;;;;;4996396;28;20034;-40
2021/08/29 07:10:57;;;;;;;10.93;2.80;;;17.70;99.90;;;;;;4996165;28;20034;-42
2021/08/29 07:14:03;;;;;;;8.18;3.45;;;17.70;99.90;;;;;;4994408;28;20050;-40
2021/08/29 07:17:10;;;;;;;11.70;3.05;;;17.70;99.90;;;;;;4990425;28;20037;-37
2021/08/29 07:19:51;;;;;;;6.05;2.58;;;17.70;99.90;;;;;;4996659;28;20026;-40
2021/08/29 07:22:17;;;;;;;7.78;2.70;;;17.70;99.90;;;;;;4995811;28;20367;-37
2021/08/29 07:25:36;;;;;;;4.03;2.20;;;17.70;99.90;;;;;;5010310;28;20057;-40
2021/08/29 07:28:16;;;;;;;8.43;2.97;;;17.70;99.90;;;;;;5010192;28;20029;-39
2021/08/29 07:30:43;;;;;;;9.27;2.80;;;17.70;99.90;;;;;;5014674;28;20354;-39
2021/08/29 07:33:10;;;;;;;9.85;2.50;;;17.70;99.90;;;;;;5013983;28;20119;-41
2021/08/29 07:35:42;;;;;;;11.23;2.58;;;17.60;99.90;;;;;;5015131;28;20030;-44
2021/08/29 07:38:45;;;;;;;7.03;2.13;;;17.60;99.90;;;;;;5017728;28;20041;-40
2021/08/29 07:41:10;;;;;;;10.73;2.78;;;17.60;99.90;;;;;;5013235;28;20046;-42
2021/08/29 07:43:36;;;;;;;13.93;3.53;;;17.60;99.90;;;;;;5015026;28;20489;-42
2021/08/29 07:46:04;;;;;;;9.45;3.10;;;17.50;99.90;;;;;;5014917;28;20384;-43
2021/08/29 07:48:36;;;;;;;11.82;2.78;;;17.50;99.90;;;;;;5014679;28;20026;-41
2021/08/29 07:51:04;;;;;;;10.23;2.92;;;17.50;99.90;;;;;;5014973;28;20089;-43
2021/08/29 07:53:29;;;;;;;8.75;2.97;;;17.50;99.90;;;;;;5011219;28;20018;-43
2021/08/29 07:56:10;;;;;;;7.00;2.95;;;17.60;99.90;;;;;;5013099;28;20060;-42
2021/08/29 07:59:06;;;;;;;11.57;3.00;;;17.60;99.90;;;;;;5013039;28;20389;-43
2021/08/29 08:02:18;;;;;;;9.05;2.83;;;17.50;99.90;;;;;;5011595;28;20404;-41
2021/08/29 08:05:08;;;;;;;8.73;2.92;;;17.50;99.90;;;;;;5012137;28;20461;-39
2021/08/29 08:07:39;;;;;;;7.25;2.72;;;17.40;99.90;;;;;;5011792;28;20444;-42
2021/08/29 08:10:08;;;;;;;8.55;2.78;;;17.40;99.90;;;;;;5011859;28;20585;-40
2021/08/29 08:12:34;;;;;;;7.70;2.67;;;17.30;99.90;;;;;;5011427;28;20029;-45
2021/08/29 08:14:59;;;;;;;7.30;2.80;;;17.40;99.90;;;;;;5010969;28;20036;-42
2021/08/29 08:17:27;;;;;;;9.93;3.13;;;17.40;99.90;;;;;;5013071;28;20018;-40
2021/08/29 08:19:53;;;;;;;10.68;3.13;;;17.30;99.90;;;;;;5015260;28;20396;-38
2021/08/29 08:22:19;;;;;;;6.90;2.60;;;17.30;99.90;;;;;;5010699;28;20037;-39
2021/08/29 08:24:50;;;;;;;10.38;3.08;;;17.10;99.90;;;;;;5010628;28;20405;-42
2021/08/29 08:34:25;;;;;;;8.27;2.85;;;16.70;99.90;;;;;;5003576;28;20052;-40
2021/08/29 08:36:52;;;;;;;7.65;2.95;;;16.60;99.90;;;;;;5003285;28;20533;-40
2021/08/29 08:39:22;;;;;;;10.50;3.15;;;16.60;99.90;;;;;;5011826;28;20022;-43
2021/08/29 08:42:09;;;;;;;7.18;2.88;;;16.60;99.90;;;;;;5011412;28;20775;-39
2021/08/29 08:44:44;;;;;;;7.03;2.53;;;16.50;99.90;;;;;;5010732;28;20480;-42
2021/08/29 08:47:15;;;;;;;7.90;2.85;;;16.50;99.90;;;;;;5009818;28;20056;-39
2021/08/29 08:49:43;;;;;;;7.72;2.95;;;16.40;99.90;;;;;;5010580;28;20022;-41
2021/08/29 08:52:25;;;;;;;5.28;2.60;;;16.40;99.90;;;;;;5009964;28;20473;-43
2021/08/29 08:54:58;;;;;;;8.32;2.88;;;16.30;99.90;;;;;;5010451;28;20417;-43
2021/08/29 08:57:34;;;;;;;7.05;2.70;;;16.30;99.90;;;;;;5007060;28;20385;-43
2021/08/29 09:00:00;;;;;;;6.47;2.67;;;16.30;99.90;;;;;;5009299;28;20531;-41
2021/08/29 09:02:28;;;;;;;7.22;3.00;;;16.20;99.90;;;;;;5007907;28;20041;-40
2021/08/29 09:04:54;;;;;;;7.45;2.83;;;16.20;99.90;;;;;;5007978;28;20478;-39
2021/08/29 09:07:26;;;;;;;9.43;2.85;;;16.20;99.90;;;;;;5007630;28;20029;-44
2021/08/29 09:09:56;;;;;;;9.57;3.13;;;16.20;99.90;;;;;;5015301;28;20024;-42
2021/08/29 09:12:22;;;;;;;7.82;3.00;;;16.20;99.90;;;;;;5010252;28;20036;-41
2021/08/29 09:15:06;;;;;;;10.05;3.05;;;16.20;99.90;;;;;;5006632;28;20029;-44
2021/08/29 09:17:37;;;;;;;6.65;2.78;;;16.20;99.90;;;;;;5007205;28;20508;-43
2021/08/29 09:20:42;;;;;;;10.40;3.00;;;16.30;99.90;;;;;;5008089;28;20141;-45
2021/08/29 09:23:19;;;;;;;7.45;2.75;;;16.20;99.90;;;;;;5002829;28;20045;-43
2021/08/29 09:26:02;;;;;;;9.38;3.13;;;16.30;99.90;;;;;;5007873;28;20046;-39
2021/08/29 09:28:31;;;;;;;8.52;3.65;;;16.40;99.90;;;;;;5009090;28;20110;-39
2021/08/29 09:31:04;;;;;;;9.35;3.67;;;16.40;99.90;;;;;;5008286;28;20061;-40
2021/08/29 09:33:33;;;;;;;10.77;3.88;;;16.40;99.90;;;;;;5009657;28;20037;-40
2021/08/29 09:36:26;;;;;;;7.93;3.65;;;16.40;99.90;;;;;;5013621;28;20022;-41
2021/08/29 09:39:15;;;;;;;10.10;2.90;;;16.30;99.90;;;;;;5005444;28;20072;-43
2021/08/29 09:41:44;;;;;;;7.95;3.13;;;16.30;99.90;;;;;;5007376;28;20059;-40
2021/08/29 09:44:11;;;;;;;7.88;3.15;;;16.30;99.90;;;;;;5018064;28;20443;-40
2021/08/29 09:46:58;;;;;;;9.63;3.28;;;16.30;99.90;;;;;;5014978;28;20108;-44
2021/08/29 09:49:25;;;;;;;12.07;3.08;;;16.30;99.90;;;;;;5014250;28;20040;-41
2021/08/29 09:51:50;;;;;;;10.95;3.22;;;16.30;99.90;;;;;;5011340;28;20124;-43
2021/08/29 09:54:36;;;;;;;7.43;2.83;;;16.30;99.90;;;;;;5009069;28;20152;-44
2021/08/29 09:57:15;;;;;;;7.15;2.97;;;16.40;99.90;;;;;;4999859;28;20045;-40
2021/08/29 09:59:53;;;;;;;8.68;3.00;;;16.40;99.90;;;;;;5008434;28;20045;-42
2021/08/29 10:02:32;;;;;;;7.20;2.65;;;16.50;99.90;;;;;;5001396;28;20487;-41
2021/08/29 10:05:20;;;;;;;9.13;2.83;;;16.50;99.90;;;;;;5008569;28;20030;-39
2021/08/29 10:08:09;;;;;;;7.00;2.53;;;16.40;99.90;;;;;;5008581;28;20030;-42
2021/08/29 10:10:58;;;;;;;8.50;2.45;;;16.40;99.90;;;;;;5007844;28;20080;-44
2021/08/29 10:13:27;;;;;;;8.00;2.60;;;16.50;99.90;;;;;;5008730;28;20022;-44
2021/08/29 10:15:54;;;;;;;5.65;2.28;;;16.50;99.90;;;;;;5007155;28;20424;-42
2021/08/29 10:18:26;;;;;;;8.05;2.38;;;16.60;99.90;;;;;;5008725;28;20640;-43
2021/08/29 10:20:57;;;;;;;;;;;16.60;99.90;;;;;;5010088;28;20688;-43
2021/08/29 10:23:29;;;;;;;5.13;2.33;;;16.70;99.90;;;;;;5016790;28;19920;-39
2021/08/29 10:26:03;;;;;;;3.60;1.95;;;16.60;99.90;;;;;;5018063;28;20358;-43
2021/08/29 10:28:40;;;;;;;5.32;2.38;;;16.60;99.90;;;;;;5018386;28;20032;-40
2021/08/29 10:31:23;;;;;;;4.15;2.20;;;16.60;99.90;;;;;;5012944;28;20714;-41
2021/08/29 10:33:57;;;;;;;4.63;1.95;;;16.70;99.90;;;;;;5010745;28;20459;-44
2021/08/29 10:36:43;;;;;;;8.18;2.63;;;16.70;99.90;;;;;;5018176;28;20112;-41
2021/08/29 10:39:10;;;;;;;6.32;2.50;;;16.80;99.90;;;;;;5019564;28;20045;-44
2021/08/29 10:41:57;;;;;;;9.55;2.50;;;16.70;99.90;;;;;;5015402;28;20069;-41
2021/08/29 10:44:32;;;;;;;5.68;2.90;;;16.80;99.90;;;;;;5018803;28;20393;-43
2021/08/29 10:47:01;;;;;;;3.95;2.25;;;16.80;99.90;;;;;;5022580;28;20764;-41
2021/08/29 10:49:31;;;;;;;6.45;2.97;;;16.80;99.90;;;;;;4993141;28;20041;-42
2021/08/29 10:52:27;;;;;;;6.00;2.40;;;16.80;99.90;;;;;;5006132;28;20764;-43
2021/08/29 10:55:00;;;;;;;6.05;2.40;;;16.90;99.90;;;;;;5002332;28;20449;-41
2021/08/29 10:58:24;;;;;;;5.22;2.28;;;16.90;99.90;;;;;;5012293;28;20038;-42
2021/08/29 11:00:52;;;;;;;6.57;2.22;;;16.90;99.90;;;;;;4993180;28;20042;-41
2021/08/29 11:03:45;;;;;;;3.63;1.88;;;17.00;99.90;;;;;;5008945;28;20136;-42
2021/08/29 11:06:46;;;;;;;4.05;1.95;;;17.10;99.90;;;;;;5007728;28;20288;-41
2021/08/29 11:09:38;;;;;;;6.53;2.35;;;17.10;99.90;;;;;;5002817;28;20099;-43
2021/08/29 11:12:25;;;;;;;3.35;2.03;;;17.20;99.90;;;;;;5009459;28;20804;-41
2021/08/29 11:14:53;;;;;;;4.13;1.90;;;17.20;99.90;;;;;;5003738;28;20042;-41
2021/08/29 11:17:58;;;;;;;3.25;1.65;;;17.30;99.90;;;;;;5008095;28;20033;-38
2021/08/29 11:20:40;;;;;;;4.93;1.95;;;17.40;99.90;;;;;;5009794;28;20030;-41
2021/08/29 11:23:05;;;;;;;2.35;1.35;;;17.40;99.90;;;;;;5005761;28;20822;-38
2021/08/29 11:25:32;;;;;;;4.72;1.80;;;17.40;99.90;;;;;;5021184;28;20448;-39
2021/08/29 11:28:07;;;;;;;2.95;1.50;;;17.40;99.90;;;;;;5012613;28;20025;-43
2021/08/29 11:30:45;;;;;;;2.75;1.70;;;17.30;99.90;;;;;;5016423;28;20030;-42
2021/08/29 11:33:28;;;;;;;3.65;1.70;;;17.30;99.90;;;;;;5011586;28;20033;-43
2021/08/29 11:35:56;;;;;;;4.10;1.48;;;17.40;99.90;;;;;;5010837;28;20542;-45
2021/08/29 11:38:35;;;;;;;3.67;1.80;;;17.40;99.90;;;;;;5002359;28;21429;-38
2021/08/29 11:41:14;;;;;;;3.83;1.90;;;17.40;99.90;;;;;;5010557;28;20018;-42
2021/08/29 11:43:50;;;;;;;2.55;1.60;;;17.40;99.90;;;;;;5013044;28;20165;-42
2021/08/29 11:46:18;;;;;;;3.13;1.70;;;17.50;99.90;;;;;;5009573;28;20489;-41
2021/08/29 11:49:03;;;;;;;2.30;1.73;;;17.50;99.90;;;;;;5008843;28;20030;-38
2021/08/29 11:51:38;;;;;;;2.58;1.70;;;17.50;99.90;;;;;;5016024;28;20017;-41
2021/08/29 11:54:11;;;;;;;3.40;2.10;;;17.50;99.90;;;;;;5016859;28;20026;-41
2021/08/29 11:56:39;;;;;;;;;;;17.50;99.90;;;;;;5024307;28;20059;-37
2021/08/29 11:59:09;;;;;;;2.80;1.75;;;17.50;99.90;;;;;;5016309;28;19910;-42
2021/08/29 12:01:41;;;;;;;3.95;2.00;;;17.50;99.90;;;;;;5021771;28;20033;-44
2021/08/29 12:04:30;;;;;;;;;;;;;;;;;;;;;
2021/08/29 12:07:10;;;;;;;3.95;2.30;;;17.40;99.90;;;;;;5001396;28;20025;-44
2021/08/29 12:09:47;;;;;;;3.78;2.15;;;17.40;99.90;;;;;;5004039;28;20123;-43
2021/08/29 12:12:17;;;;;;;3.90;2.05;;;17.50;99.90;;;;;;4993042;28;20515;-41
2021/08/29 12:14:44;;;;;;;3.33;1.90;;;17.60;99.90;;;;;;4997244;28;20465;-44
2021/08/29 12:17:17;;;;;;;3.40;2.10;;;17.80;99.90;;;;;;5012230;28;20090;-41
2021/08/29 12:19:45;;;;;;;3.50;2.03;;;18.00;99.90;;;;;;5010950;28;20038;-43
2021/08/29 12:22:15;;;;;;;2.22;1.85;;;18.00;99.90;;;;;;5011832;28;20030;-41
2021/08/29 12:25:01;;;;;;;2.53;1.67;;;18.00;99.90;;;;;;5008220;28;20139;-42
2021/08/29 12:27:41;;;;;;;3.83;2.30;;;18.00;99.90;;;;;;5011828;28;20107;-43
2021/08/29 12:30:07;;;;;;;3.78;2.40;;;18.00;99.90;;;;;;5007901;28;20053;-42
2021/08/29 12:32:37;;;;;;;8.73;3.20;;;18.00;99.90;;;;;;5012193;28;20026;-43
2021/08/29 12:35:15;;;;;;;8.25;3.28;;;18.00;99.90;;;;;;5010598;28;20121;-43
2021/08/29 12:37:47;;;;;;;5.32;2.60;;;18.00;99.90;;;;;;5011087;28;20437;-43
2021/08/29 12:40:17;;;;;;;5.18;3.13;;;18.10;99.90;;;;;;5012308;28;20029;-39
2021/08/29 12:42:46;;;;;;;5.55;2.85;;;18.20;99.90;;;;;;5010887;28;20068;-43
2021/08/29 12:45:15;;;;;;;5.72;2.88;;;18.20;99.90;;;;;;5011099;28;20075;-44
2021/08/29 12:47:43;;;;;;;7.45;3.20;;;18.30;99.90;;;;;;5011772;28;20523;-43
2021/08/29 12:50:11;;;;;;;6.65;3.05;;;18.30;99.90;;;;;;5007229;28;20026;-45
2021/08/29 12:52:39;;;;;;;5.05;2.60;;;18.30;99.90;;;;;;5010422;28;20398;-41
2021/08/29 12:55:13;;;;;;;4.75;2.80;;;18.30;99.90;;;;;;5011239;28;20101;-44
2021/08/29 12:58:02;;;;;;;7.45;3.25;;;18.30;99.90;;;;;;5003472;28;20531;-45
2021/08/29 13:00:46;;;;;;;5.55;3.35;;;18.30;99.90;;;;;;5012197;28;20033;-42
2021/08/29 13:03:15;;;;;;;5.68;3.40;;;18.40;99.90;;;;;;5005294;28;20045;-42
2021/08/29 13:05:47;;;;;;;8.75;3.72;;;18.30;99.90;;;;;;5010805;28;20504;-42
2021/08/29 13:08:13;;;;;;;5.40;3.17;;;18.30;99.90;;;;;;5006997;28;20033;-41
2021/08/29 13:11:01;;;;;;;4.80;2.90;;;18.30;99.90;;;;;;5009337;28;20030;-44
2021/08/29 13:14:01;;;;;;;6.03;2.97;;;18.40;99.90;;;;;;5008037;28;20084;-40
2021/08/29 13:16:47;;;;;;;8.05;3.65;;;18.50;99.90;;;;;;5010061;28;20038;-41
2021/08/29 13:19:25;;;;;;;6.30;3.88;;;18.50;99.90;;;;;;5008072;28;20033;-42
2021/08/29 13:22:02;;;;;;;6.53;3.75;;;18.50;99.90;;;;;;5005801;28;20472;-41
2021/08/29 13:27:20;;;;;;;5.90;3.53;;;18.40;99.90;;;;;;5007451;28;20420;-42
2021/08/29 13:29:46;;;;;;;4.78;2.95;;;18.40;99.90;;;;;;5021764;28;20033;-44
2021/08/29 13:32:32;;;;;;;5.03;2.90;;;18.50;99.90;;;;;;5014094;28;20376;-40
2021/08/29 13:35:33;;;;;;;5.00;2.70;;;18.50;99.90;;;;;;4992321;28;20039;-37
2021/08/29 13:38:11;;;;;;;5.15;2.90;;;18.60;99.90;;;;;;5007223;28;20105;-42
2021/08/29 13:40:56;;;;;;;4.45;2.53;;;18.80;99.90;;;;;;5008758;28;20552;-45
2021/08/29 13:44:00;;;;;;;8.85;6.10;;;18.90;99.90;;;;;;5005836;28;20458;-42
2021/08/29 13:46:37;;;;;;;4.93;3.40;;;19.00;99.90;;;;;;5010339;28;20044;-41
2021/08/29 13:49:32;;;;;;;4.88;2.65;;;19.10;99.90;;;;;;5008141;28;20064;-44
2021/08/29 13:52:06;;;;;;;3.72;2.60;;;19.30;99.90;;;;;;5004264;28;20060;-38
2021/08/29 13:54:39;;;;;;;4.05;2.40;;;19.40;99.90;;;;;;5007285;28;20053;-43
2021/08/29 13:57:08;;;;;;;4.30;2.60;;;19.40;99.90;;;;;;5008160;28;20426;-42
2021/08/29 13:59:37;;;;;;;5.70;2.53;;;19.40;99.90;;;;;;5008091;28;20120;-44
2021/08/29 14:03:08;;;;;;;4.57;2.40;;;19.50;99.90;;;;;;5015228;28;20133;-45
2021/08/29 14:06:14;;;;;;;3.50;2.15;;;19.50;99.90;;;;;;5006479;28;20033;-39
2021/08/29 14:09:10;;;;;;;2.47;2.00;;;19.50;99.90;;;;;;5004776;28;20049;-41
2021/08/29 14:11:36;;;;;;;2.80;1.95;;;19.60;99.90;;;;;;5009630;28;20017;-43
2021/08/29 14:14:02;;;;;;;3.28;2.05;;;19.70;99.90;;;;;;5018820;28;20104;-42
2021/08/29 14:16:34;;;;;;;3.10;2.15;;;19.70;99.90;;;;;;5008251;28;20029;-43
2021/08/29 14:19:00;;;;;;;2.63;2.00;;;19.80;99.90;;;;;;5003972;28;20040;-42
2021/08/29 14:21:28;;;;;;;3.92;2.00;;;19.80;99.90;;;;;;5006432;28;20034;-41
2021/08/29 14:23:53;;;;;;;4.95;2.30;;;19.80;99.90;;;;;;5005960;28;20404;-43
2021/08/29 14:26:28;;;;;;;3.45;1.88;;;19.80;99.90;;;;;;4989767;28;20105;-42
2021/08/29 14:28:54;;;;;;;5.30;2.10;;;19.70;99.90;;;;;;4986820;28;20049;-42
2021/08/29 14:31:19;;;;;;;2.15;1.70;;;19.80;99.90;;;;;;4988190;28;20378;-41
2021/08/29 14:33:45;;;;;;;2.92;1.67;;;19.80;99.90;;;;;;4987741;28;20097;-42
2021/08/29 14:36:13;;;;;;;2.65;1.58;;;19.80;99.90;;;;;;4987140;28;20082;-43
2021/08/29 14:38:39;;;;;;;2.53;1.85;;;19.90;99.90;;;;;;4987844;28;20026;-45
2021/08/29 14:41:05;;;;;;;3.15;1.95;;;19.90;99.90;;;;;;4986271;28;20600;-43
2021/08/29 14:43:30;;;;;;;4.93;1.95;;;19.80;99.90;;;;;;4986854;28;20042;-43
2021/08/29 14:45:56;;;;;;;3.00;1.80;;;19.70;99.90;;;;;;4987388;28;20045;-44
2021/08/29 14:48:21;;;;;;;3.38;1.75;;;19.60;99.90;;;;;;4986751;28;20377;-41
2021/08/29 14:50:47;;;;;;;3.95;1.65;;;19.60;99.90;;;;;;4986704;28;20357;-42
2021/08/29 14:53:15;;;;;;;3.45;1.50;;;19.60;99.90;;;;;;4988375;28;20522;-43
2021/08/29 14:55:41;;;;;;;2.17;1.80;;;19.60;99.90;;;;;;4985262;28;20385;-42
2021/08/29 14:58:06;;;;;;;2.85;1.40;;;19.70;99.90;;;;;;4985695;28;20541;-44